Latest Weather Observations for Moorabbin Airport

IDV60901

Issued at 7:51 am EDT Tuesday 24 January 2017 (issued every 10 minutes, with the page automatically refreshed every 10 minutes)

About weather observations | Map of Melbourne area stations | Latest observations for Melbourne area | Other Formats
Station Details ID: 086077 Name: MOORABBIN AIRPORT Lat: -37.98 Lon: 145.10 Height: 12.1 m
Data from the previous 72 hours. | See also: Recent months at Moorabbin Airport
Date/Time
EDT
Temp
°C
App
Temp
°C
Dew
Point
°C
Rel
Hum
%
Delta-T
°C
Wind Press
QNH
hPa
Press
MSL
hPa
Rain since
9am
mm
Dir  Spd
km/h
Gust
km/h
Spd
kts
Gust
kts
24/07:50am 19.6 15.4 13.5 68 3.5 WSW 28 46 15 25 1010.4 1010.4 1.0
24/07:30am 19.6 16.2 13.8 69 3.3 W 24 35 13 19 1010.0 1010.0 1.0
24/07:00am 19.9 15.6 14.3 70 3.3 W 30 43 16 23 1008.9 1008.9 1.0
24/06:39am 20.4 16.9 15.4 73 3.0 WSW 28 54 15 29 1008.2 1008.2 1.0
24/06:30am 20.7 18.0 16.5 77 2.5 WSW 26 41 14 22 1008.0 1008.0 1.0
24/06:03am 20.8 17.7 16.6 77 2.5 WSW 28 52 15 28 1007.0 1007.0 1.0
24/06:00am 20.8 17.7 16.6 77 2.5 WSW 28 43 15 23 1006.9 1006.9 1.0
24/05:49am 20.9 17.9 16.9 78 2.4 WSW 28 48 15 26 1006.7 1006.7 1.0
24/05:30am 20.8 18.5 17.6 82 2.0 WSW 26 41 14 22 1006.1 1006.1 1.0
24/05:02am 21.1 18.3 18.3 84 1.7 WSW 30 48 16 26 1005.4 1005.4 1.0
24/05:00am 21.1 18.0 18.3 84 1.8 WSW 32 48 17 26 1005.4 1005.4 1.0
24/04:56am 21.1 18.8 18.5 85 1.6 WSW 28 46 15 25 1005.3 1005.3 1.0
24/04:48am 21.1 19.0 18.9 87 1.4 W 28 43 15 23 1005.2 1005.2 1.0
24/04:34am 21.2 18.6 19.5 90 1.1 WSW 32 56 17 30 1004.9 1004.9 1.0
24/04:32am 21.1 18.5 19.4 90 1.1 WSW 32 56 17 30 1004.9 1004.9 1.0
24/04:30am 21.2 18.7 19.7 91 1.0 WSW 32 46 17 25 1004.9 1004.9 1.0
24/04:11am 21.6 18.9 19.7 89 1.2 WSW 33 56 18 30 1004.6 1004.6 0.8
24/04:04am 22.3 19.4 19.3 83 1.9 W 33 56 18 30 1004.3 1004.3 0.2
24/04:00am 23.0 20.9 19.0 78 2.5 WSW 28 52 15 28 1004.1 1004.1 0.2
24/03:59am 23.2 21.4 18.7 76 2.8 WSW 26 52 14 28 1004.1 1004.1 0.2
24/03:54am 23.8 23.1 18.2 71 3.5 WSW 19 43 10 23 1004.0 1004.0 0.2
24/03:30am 24.7 24.8 17.4 64 4.5 NW 13 22 7 12 1003.4 1003.4 0.2
24/03:00am 24.2 25.0 17.4 65 4.2 NNW 9 13 5 7 1003.2 1003.2 0.2
24/02:30am 24.0 23.9 17.0 65 4.3 NNW 13 22 7 12 1003.0 1003.0 0.2
24/02:00am 23.6 23.8 17.6 69 3.7 N 13 19 7 10 1002.6 1002.6 0.2
24/01:30am 22.7 23.3 17.6 73 3.2 N 11 17 6 9 1002.7 1002.7 0.2
24/01:00am 22.3 22.7 18.1 77 2.6 NNE 13 15 7 8 1002.9 1002.9 0.2
24/12:30am 22.0 23.4 18.6 81 2.1 N 9 13 5 7 1003.3 1003.3 0.2
24/12:00am 21.6 22.2 18.6 83 1.9 N 13 17 7 9 1003.9 1003.9 0.2
 
Date/Time
EDT
Temp
°C
App
Temp
°C
Dew
Point
°C
Rel
Hum
%
Delta-T
°C
Wind Press
QNH
hPa
Press
MSL
hPa
Rain since
9am
mm
Dir  Spd
km/h
Gust
km/h
Spd
kts
Gust
kts
23/11:30pm 21.6 24.3 18.6 83 1.9 NNW 2 9 1 5 1004.2 1004.2 0.2
23/11:00pm 21.6 22.9 19.2 86 1.5 NNE 11 15 6 8 1003.9 1003.9 0.2
23/10:30pm 21.4 22.2 19.1 87 1.5 ENE 13 19 7 10 1004.1 1004.1 0.2
23/10:00pm 21.4 22.6 19.0 86 1.5 SE 11 17 6 9 1004.8 1004.8 0.2
23/09:30pm 21.5 22.8 18.5 83 1.9 WSW 9 19 5 10 1005.6 1005.6 0.2
23/09:00pm 21.4 21.3 17.8 80 2.2 WSW 15 20 8 11 1005.3 1005.3 0.0
23/08:30pm 21.9 20.9 17.5 76 2.7 SW 19 33 10 18 1004.6 1004.6 0.0
23/08:00pm 22.3 18.8 16.6 70 3.5 SW 30 44 16 24 1003.8 1003.8 0.0
23/07:34pm 23.6 19.7 16.4 64 4.4 SSW 32 50 17 27 1002.7 1002.7 0.0
23/07:30pm 23.8 19.3 16.3 63 4.6 SSW 35 50 19 27 1002.6 1002.6 0.0
23/07:00pm 26.9 20.8 16.2 52 6.6 SW 43 67 23 36 1001.8 1001.8 0.0
23/06:55pm 28.5 24.5 15.1 44 8.2 W 30 61 16 33 1001.4 1001.4 0.0
23/06:51pm 33.1 30.3 13.2 30 12.0 NW 20 52 11 28 1000.9 1000.9 0.0
23/06:30pm 35.3 32.6 8.9 20 15.0 NW 13 22 7 12 1000.3 1000.3 0.0
23/06:00pm 35.6 31.6 8.4 19 15.5 WNW 19 24 10 13 1000.6 1000.6 0.0
23/05:30pm 35.7 32.1 8.5 19 15.4 NW 17 24 9 13 1000.9 1000.9 0.0
23/05:00pm 35.8 32.3 10.1 21 15.0 NW 19 28 10 15 1001.1 1001.1 0.0
23/04:30pm 35.2 31.9 10.9 23 14.3 NNW 19 28 10 15 1001.6 1001.6 0.0
23/04:00pm 35.3 30.7 9.7 21 14.8 NNW 24 35 13 19 1001.9 1001.9 0.0
23/03:30pm 34.4 29.8 10.9 24 13.7 NNW 26 37 14 20 1002.4 1002.4 0.0
23/03:00pm 34.7 27.7 8.4 20 14.9 NNW 35 56 19 30 1002.4 1002.4 0.0
23/02:46pm 36.1 30.9 10.3 21 15.1 NW 28 46 15 25 1002.5 1002.5 0.0
23/02:30pm 34.7 29.4 11.2 24 13.8 NNW 30 41 16 22 1002.7 1002.7 0.0
23/02:06pm 35.2 30.2 10.9 23 14.3 NNW 28 46 15 25 1002.8 1002.8 0.0
23/02:00pm 35.6 29.9 9.9 21 14.9 NNW 30 41 16 22 1002.9 1002.9 0.0
23/01:30pm 35.4 31.2 9.7 21 14.8 NNW 22 37 12 20 1003.2 1003.2 0.0
23/01:00pm 34.8 32.3 13.6 28 13.0 NNW 19 32 10 17 1003.6 1003.6 0.0
23/12:30pm 33.3 31.1 14.4 32 11.6 NNW 19 32 10 17 1004.2 1004.2 0.0
23/12:00pm 31.9 29.3 13.2 32 11.2 NNW 19 22 10 12 1004.6 1004.6 0.0
23/11:30am 31.5 28.9 13.3 33 10.9 N 19 26 10 14 1004.9 1004.9 0.0
23/11:00am 31.4 28.2 13.2 33 10.9 N 22 28 12 15 1005.1 1005.1 0.0
23/10:30am 31.2 29.8 14.4 36 10.2 N 15 22 8 12 1005.5 1005.5 0.0
23/10:00am 29.8 29.4 14.0 38 9.5 N 9 19 5 10 1005.7 1005.7 0.0
23/09:30am 26.1 28.7 17.5 59 5.4 CALM 0 0 0 0 1006.0 1006.0 0.0
23/09:00am 24.4 25.5 16.6 61 4.8 NE 6 9 3 5 1006.1 1006.1 0.0
23/08:30am 22.6 23.2 15.7 65 4.1 ESE 7 9 4 5 1006.4 1006.4 0.0
23/08:00am 21.1 21.6 15.6 71 3.3 ESE 7 9 4 5 1006.4 1006.4 0.0
23/07:30am 19.7 20.2 14.9 74 2.8 ENE 6 7 3 4 1006.3 1006.3 0.0
23/07:00am 19.2 19.2 14.2 73 2.9 E 7 7 4 4 1006.5 1006.5 0.0
23/06:30am 19.5 19.7 14.7 74 2.8 ENE 7 11 4 6 1006.5 1006.5 0.0
23/06:00am 19.0 19.2 14.1 73 2.8 ESE 6 7 3 4 1006.7 1006.7 0.0
23/05:30am 19.4 19.1 14.4 73 2.9 ENE 9 11 5 6 1006.6 1006.6 0.0
23/05:00am 18.5 19.0 14.0 75 2.6 SSE 4 6 2 3 1006.9 1006.9 0.0
23/04:30am 18.1 18.0 13.4 74 2.7 ESE 6 6 3 3 1006.9 1006.9 0.0
23/04:00am 18.7 18.8 14.0 74 2.7 SE 6 7 3 4 1007.2 1007.2 0.0
23/03:30am 18.7 19.6 15.2 80 2.1 SSE 4 6 2 3 1007.5 1007.5 0.0
23/03:00am 19.7 22.1 17.1 85 1.6 CALM 0 4 0 2 1007.5 1007.5 0.0
23/02:30am 20.1 21.6 17.5 85 1.6 NNW 6 9 3 5 1007.8 1007.8 0.0
23/02:00am 20.1 21.9 17.5 85 1.6 WNW 4 6 2 3 1008.1 1008.1 0.0
23/01:30am 20.2 21.3 17.0 82 1.9 WNW 7 11 4 6 1008.4 1008.4 0.0
23/01:00am 20.1 20.0 14.9 72 3.1 NNE 9 11 5 6 1008.5 1008.5 0.0
23/12:30am 19.9 21.3 14.3 70 3.2 CALM 0 0 0 0 1009.1 1009.1 0.0
23/12:00am 20.7 21.1 14.8 69 3.5 NE 6 7 3 4 1009.5 1009.5 0.0
 
Date/Time
EDT
Temp
°C
App
Temp
°C
Dew
Point
°C
Rel
Hum
%
Delta-T
°C
Wind Press
QNH
hPa
Press
MSL
hPa
Rain since
9am
mm
Dir  Spd
km/h
Gust
km/h
Spd
kts
Gust
kts
22/11:30pm 20.2 21.4 13.9 67 3.6 CALM 0 0 0 0 1009.6 1009.6 0.0
22/11:00pm 20.5 19.8 14.4 68 3.6 ESE 11 13 6 7 1009.9 1009.9 0.0
22/10:30pm 21.4 20.9 15.0 67 3.8 ESE 11 13 6 7 1010.3 1010.3 0.0
22/10:00pm 21.6 21.8 15.7 69 3.5 ESE 9 11 5 6 1010.1 1010.1 0.0
22/09:30pm 22.5 21.6 15.8 66 4.0 ESE 15 22 8 12 1010.3 1010.3 0.0
22/09:00pm 22.9 21.7 16.2 66 4.1 ESE 17 20 9 11 1010.3 1010.3 0.0
22/08:30pm 23.4 22.2 16.0 63 4.5 ESE 17 22 9 12 1010.5 1010.5 0.0
22/08:00pm 24.5 22.7 16.0 59 5.2 ESE 20 26 11 14 1010.4 1010.4 0.0
22/07:30pm 25.6 23.2 15.3 53 6.2 SE 22 28 12 15 1010.3 1010.3 0.0
22/07:00pm 26.8 23.8 14.9 48 7.2 SE 24 30 13 16 1010.2 1010.2 0.0
22/06:30pm 27.8 25.4 15.5 47 7.5 SE 22 28 12 15 1010.4 1010.4 0.0
22/06:00pm 27.9 26.5 16.5 50 7.1 S 19 24 10 13 1010.6 1010.6 0.0
22/05:30pm 26.3 25.2 17.4 58 5.6 SSW 19 26 10 14 1010.9 1010.9 0.0
22/05:00pm 25.1 23.5 16.5 59 5.3 SW 20 26 11 14 1011.3 1011.3 0.0
22/04:30pm 25.3 23.7 16.4 57 5.5 SSW 20 24 11 13 1011.7 1011.7 0.0
22/04:00pm 24.6 22.7 16.8 62 4.8 SW 22 26 12 14 1012.0 1012.0 0.0
22/03:30pm 25.4 24.3 17.3 61 5.0 SW 19 20 10 11 1012.2 1012.2 0.0
22/03:00pm 24.8 23.3 15.4 56 5.7 SW 17 20 9 11 1012.6 1012.6 0.0
22/02:30pm 25.0 23.1 15.3 55 5.8 SW 19 22 10 12 1012.9 1012.9 0.0
22/02:00pm 25.6 24.9 16.5 57 5.6 SW 15 20 8 11 1013.2 1013.2 0.0
22/01:30pm 26.2 25.7 12.6 43 7.9 ESE 7 13 4 7 1013.5 1013.5 0.0
22/01:00pm 25.6 23.9 12.4 43 7.6 SE 13 20 7 11 1013.6 1013.6 0.0
22/12:30pm 24.9 23.1 12.2 45 7.3 ESE 13 20 7 11 1014.0 1014.0 0.0
22/12:00pm 23.6 21.8 12.0 48 6.6 ESE 13 22 7 12 1014.4 1014.4 0.0
22/11:30am 22.6 21.4 11.7 50 6.1 ESE 9 20 5 11 1014.8 1014.8 0.0
22/11:00am 21.4 19.8 11.7 54 5.4 ESE 11 19 6 10 1015.1 1015.1 0.0
22/10:30am 20.5 18.8 12.5 60 4.5 ESE 13 19 7 10 1015.5 1015.5 0.0
22/10:00am 19.6 18.2 12.1 62 4.2 ESE 11 17 6 9 1016.0 1016.0 0.0
22/09:30am 18.6 17.1 11.9 65 3.7 SE 11 17 6 9 1016.3 1016.3 0.0
22/09:00am 17.9 17.2 11.9 68 3.3 ESE 7 11 4 6 1016.6 1016.6 0.0
22/08:30am 16.7 16.8 12.7 77 2.2 NE 4 11 2 6 1016.8 1016.8 0.0
22/08:00am 15.2 15.0 12.9 86 1.3 N 6 7 3 4 1016.5 1016.5 0.0
22/07:30am 14.1 14.5 12.5 90 0.9 NE 2 7 1 4 1016.4 1016.4 0.0
22/07:00am 12.4 12.4 11.3 93 0.6 ENE 2 6 1 3 1016.3 1016.3 0.0
22/06:30am 11.3 11.3 9.9 91 0.7 CALM 0 0 0 0 1016.3 1016.3 0.0
22/06:00am 11.4 11.4 9.8 90 0.8 CALM 0 0 0 0 1016.0 1016.0 0.0
22/05:30am 11.8 11.5 10.0 89 0.9 E 2 6 1 3 1015.7 1015.7 0.0
22/05:00am 12.4 12.6 10.6 89 0.9 CALM 0 0 0 0 1015.6 1015.6 0.0
22/04:30am 12.3 12.5 10.5 89 0.9 CALM 0 0 0 0 1015.3 1015.3 0.0
22/04:00am 12.6 12.8 10.7 88 1.0 CALM 0 0 0 0 1015.4 1015.4 0.0
22/03:30am 12.9 13.2 10.8 87 1.1 CALM 0 0 0 0 1015.5 1015.5 0.0
22/03:00am 13.1 12.2 10.8 86 1.2 SE 6 7 3 4 1015.7 1015.7 0.0
22/02:30am 13.6 12.9 11.5 87 1.1 SSE 6 9 3 5 1015.8 1015.8 0.0
22/02:00am 13.8 14.3 11.5 86 1.2 CALM 0 0 0 0 1016.0 1016.0 0.0
22/01:30am 13.6 13.9 11.0 84 1.4 CALM 0 0 0 0 1016.0 1016.0 0.0
22/01:00am 14.2 13.4 11.2 82 1.6 SE 6 7 3 4 1016.3 1016.3 0.0
22/12:30am 14.4 13.1 11.2 81 1.7 SE 9 11 5 6 1016.3 1016.3 0.0
22/12:00am 14.8 13.5 11.2 79 1.9 SSE 9 11 5 6 1016.5 1016.5 0.0
 
Date/Time
EDT
Temp
°C
App
Temp
°C
Dew
Point
°C
Rel
Hum
%
Delta-T
°C
Wind Press
QNH
hPa
Press
MSL
hPa
Rain since
9am
mm
Dir  Spd
km/h
Gust
km/h
Spd
kts
Gust
kts
21/11:30pm 15.3 14.0 11.3 77 2.1 SSE 9 13 5 7 1016.6 1016.6 0.0
21/11:00pm 15.4 13.6 11.0 75 2.3 SE 11 15 6 8 1016.7 1016.7 0.0
21/10:30pm 16.2 13.7 11.2 72 2.7 SE 15 19 8 10 1016.7 1016.7 0.0
21/10:00pm 16.8 14.4 11.3 70 3.0 SE 15 20 8 11 1016.6 1016.6 0.0
21/09:30pm 17.3 14.9 11.3 68 3.2 SE 15 20 8 11 1016.4 1016.4 0.0
21/09:00pm 17.7 14.4 10.8 64 3.7 SE 19 22 10 12 1016.3 1016.3 0.0
21/08:30pm 18.8 15.9 11.1 61 4.2 SE 17 22 9 12 1016.0 1016.0 0.0
21/08:00pm 20.0 17.2 11.5 58 4.7 SSE 17 24 9 13 1015.7 1015.7 0.0
21/07:30pm 19.8 17.1 13.0 65 3.9 SW 19 24 10 13 1015.5 1015.5 0.0
21/07:00pm 20.0 16.6 12.5 62 4.2 SSW 22 28 12 15 1015.3 1015.3 0.0
21/06:30pm 20.7 17.9 13.2 62 4.3 SW 20 24 11 13 1015.1 1015.1 0.0
21/06:00pm 20.6 17.6 12.1 58 4.8 SSW 19 26 10 14 1015.0 1015.0 0.0
21/05:30pm 21.3 18.8 12.2 56 5.1 SW 17 24 9 13 1015.2 1015.2 0.0
21/05:00pm 20.9 17.4 11.0 53 5.4 SW 20 24 11 13 1015.4 1015.4 0.0
21/04:30pm 20.9 16.9 8.9 46 6.3 SW 20 28 11 15 1015.3 1015.3 0.0
21/04:00pm 20.8 17.3 10.9 53 5.4 SSW 20 30 11 16 1015.4 1015.4 0.0
21/03:30pm 20.1 16.7 11.1 56 4.9 SSW 20 32 11 17 1015.6 1015.6 0.0
21/03:00pm 20.0 16.8 11.8 59 4.5 SW 20 28 11 15 1015.6 1015.6 0.0
21/02:30pm 19.9 16.3 11.9 60 4.4 SSW 22 32 12 17 1015.7 1015.7 0.0
21/02:00pm 19.8 16.6 11.8 60 4.4 SW 20 30 11 16 1015.9 1015.9 0.0
21/01:30pm 19.1 14.9 11.2 60 4.3 SW 24 33 13 18 1016.0 1016.0 0.0
21/01:00pm 19.8 16.3 12.1 61 4.3 SSW 22 32 12 17 1016.1 1016.1 0.0
21/12:30pm 19.4 16.3 12.2 63 4.0 SSW 20 30 11 16 1016.0 1016.0 0.0
21/12:00pm 19.1 16.0 12.1 64 3.9 SW 20 30 11 16 1015.9 1015.9 0.0
21/11:30am 18.8 16.3 12.3 66 3.6 SW 17 24 9 13 1015.9 1015.9 0.0
21/11:00am 18.3 15.4 11.1 63 3.9 SW 17 24 9 13 1015.6 1015.6 0.0
21/10:30am 18.5 15.6 9.8 57 4.6 S 15 24 8 13 1015.5 1015.5 0.0
21/10:00am 17.9 14.3 9.8 59 4.3 S 19 32 10 17 1015.2 1015.2 0.0
21/09:30am 18.0 14.6 10.4 61 4.1 SSW 19 26 10 14 1015.1 1015.1 0.0
21/09:00am 17.1 14.4 11.8 71 2.9 SSW 17 24 9 13 1014.8 1014.8 0.8
21/08:30am 16.7 14.2 11.0 69 3.1 SW 15 20 8 11 1014.4 1014.4 0.8
21/08:00am 17.1 14.3 10.0 63 3.7 SE 15 20 8 11 1013.8 1013.8 0.8

Latest Capital City Observations: Canberra | Sydney | Melbourne | Brisbane | Adelaide | Perth | Hobart | Darwin

Other Formats:

Comma delimited format used in spreadsheet applications
http://www.bom.gov.au/fwo/IDV60901/IDV60901.94870.axf

JavaScript Object Notation format (JSON) in row-major order
http://www.bom.gov.au/fwo/IDV60901/IDV60901.94870.json